Nearby METAR Reports

 

KSJC - San Jose, California, USA
Distance from station: NØ 14km
Opdateret: 04/03/2021 0606:0303
Klart
Klart
 Vind retning SØ
Vind: SØ 19 km/h
Temperatur: 13°C
Dugpunkt: 4°C
Fugtighed: 55%
Barometer: 1024 hPa
Clouds: Klart
Visibility: 16 km
2021/03/04 17:53 KSJC 041753Z 14010KT 10SM CLR 13/04 A3024 RMK AO2 SLP239 T01330044 10133 20056
KNUQ - Moffett Nas/Mtn, California, USA
Distance from station: N 14km
Opdateret: 04/03/2021 0606:0303
Klart
Klart
 Vind retning NNV
Vind: NNV 7 km/h
Temperatur: 11°C
Dugpunkt: 5°C
Fugtighed: 67%
Barometer: 1024.4 hPa
Clouds: Klart
Visibility: 14 km
2021/03/04 17:50 KNUQ 041750Z AUTO 34004KT 9SM CLR 11/05 A3025 RMK AO2
 
KPAO - Palo Alto, California, USA
Distance from station: NNV 23km
Opdateret: 04/03/2021 0606:0303
Klart
Klart
 Vind retning N
Vind: N 7 km/h
Temperatur: 11°C
Dugpunkt: 6°C
Fugtighed: 72%
Barometer: 1024.7 hPa
Clouds: Klart
Visibility: 16 km
2021/03/04 17:47 KPAO 041747Z 36004KT 10SM SKC 11/06 A3026
KRHV - San Jose/Reid, California, USA
Distance from station: ØNØ 19km
Opdateret: 04/03/2021 0606:0303
Klart
Klart
 Vind retning calm
Vind: Vindstille
Temperatur: 13°C
Dugpunkt: 5°C
Fugtighed: 59%
Barometer: 1024.4 hPa
Clouds: Klart
Visibility: 16 km
2021/03/04 17:53 KRHV 041753Z 00000KT 10SM SKC 13/05 A3025
 
KOAK - Oakland, California, USA
Distance from station: NNV 50km
Opdateret: 04/03/2021 0606:0303
Few Clouds
Few Clouds
 Vind retning calm
Vind: Vindstille
Temperatur: 14°C
Dugpunkt: 6°C
Fugtighed: 59%
Barometer: 1024.7 hPa
Clouds: Few Clouds
Visibility: 16 km
Cloud details: Few Clouds 427 m
2021/03/04 17:53 KOAK 041753Z 00000KT 10SM FEW014 14/06 A3026 RMK AO2 SLP248 T01390056 10139 20067 51017
KSQL - San Carlos Airpo, California, USA
Distance from station: NV 34km
Opdateret: 04/03/2021 0606:0303
Klart
Klart
 Vind retning ØNØ
Vind: ØNØ 6 km/h
Temperatur: 11°C
Dugpunkt: 7°C
Fugtighed: 77%
Barometer: 1024.7 hPa
Clouds: Klart
Visibility: 16 km
2021/03/04 17:50 KSQL 041750Z 06003KT 10SM SKC 11/07 A3026
 
KSFO - San Francisco, California, USA
Distance from station: NV 49km
Opdateret: 04/03/2021 0606:0303
Few Clouds
Few Clouds
 Vind retning ØNØ
Vind: ØNØ 11 km/h
Temperatur: 13°C
Dugpunkt: 7°C
Fugtighed: 67%
Barometer: 1024.7 hPa
Clouds: Few Clouds
Visibility: 16 km
Cloud details: Few Clouds 762 m
2021/03/04 17:56 KSFO 041756Z 07006KT 10SM FEW025 13/07 A3026 RMK AO2 SLP245 T01280067 10128 20072 51016
KE16 - San Martin, California, USA
Distance from station: ØSØ 43km
Opdateret: 04/03/2021 0606:0303
Klart
Klart
 Vind retning SØ
Vind: SØ 9 km/h
Temperatur: 11°C
Dugpunkt: 5°C
Fugtighed: 67%
Barometer: 1025.1 hPa
Clouds: Klart
Visibility: 16 km
2021/03/04 17:55 KE16 041755Z AUTO 14005KT 10SM CLR 11/05 A3027 RMK AO2 PWINO PNO
 
KWVI - Watsonville, California, USA
Distance from station: SSØ 44km
Opdateret: 04/03/2021 0606:0303
Klart
Klart
 Vind retning calm
Vind: Vindstille
Temperatur: 12°C
Dugpunkt: 6°C
Fugtighed: 67%
Barometer: 1025.1 hPa
Clouds: Klart
Visibility: 16 km
2021/03/04 17:53 KWVI 041753Z AUTO 00000KT 10SM CLR 12/06 A3027 RMK AO2 SLP249 T01220061 10122 20044 51014
KHAF - Half Moon Bay, California, USA
Distance from station: VNV 50km
Opdateret: 04/03/2021 0606:0303
Haze, Klart
Haze, Klart
 Vind retning S
Vind: S 9 km/h
Temperatur: 12°C
Dugpunkt: 7°C
Fugtighed: 72%
Barometer: 1025.1 hPa
Oversigt: Haze
Clouds: Klart
Visibility: 8 km
2021/03/04 17:55 KHAF 041755Z AUTO 19005KT 5SM HZ CLR 12/07 A3027 RMK AO2
 
KHWD - Hayward, California, USA
Distance from station: N 44km
Opdateret: 04/03/2021 0606:0303
Klart
Klart
 Vind retning calm
Vind: Vindstille
Temperatur: 12°C
Dugpunkt: 6°C
Fugtighed: 67%
Barometer: 1024.4 hPa
Clouds: Klart
Visibility: 16 km
2021/03/04 17:54 KHWD 041754Z 00000KT 10SM CLR 12/06 A3025 RMK AO2 SLP255 T01220061 10122 20050 51016
KLVK - Livermore, California, USA
Distance from station: NNØ 51km
Opdateret: 04/03/2021 0606:0303
Klart
Klart
 Vind retning calm
Vind: Vindstille
Temperatur: 11°C
Dugpunkt: 4°C
Fugtighed: 62%
Barometer: 1024 hPa
Clouds: Klart
Visibility: 16 km
2021/03/04 17:53 KLVK 041753Z 00000KT 10SM CLR 11/04 A3024 RMK AO2 SLP240 T01060044 10106 20017 51011